Time;durP1;ratioP1;P1;durP2;ratioP2;P2;SDS_P1;SDS_P2;PMS_P1;PMS_P2;Temp;Humidity;BMP_temperature;BMP_pressure;BME280_temperature;BME280_humidity;BME280_pressure;Samples;Min_cycle;Max_cycle;Signal;HPM_P1;HPM_P2
2021/12/08 00:01:02;;;;;;;16.23;11.75;;;;;;;4.67;100.00;98883.34;5111478;28;20040;-56
2021/12/08 00:03:30;;;;;;;16.95;12.00;;;;;;;4.71;100.00;98888.38;5099819;28;20110;-53
2021/12/08 00:05:56;;;;;;;17.08;13.10;;;;;;;4.36;100.00;98827.22;5105673;28;20032;-53
2021/12/08 00:08:22;;;;;;;18.45;12.75;;;;;;;4.76;100.00;98889.03;5107260;28;20027;-49
2021/12/08 00:13:25;;;;;;;18.05;11.60;;;;;;;4.85;100.00;98890.41;5083702;28;20032;-55
2021/12/08 00:15:53;;;;;;;17.67;11.77;;;;;;;4.52;100.00;98830.91;5087857;28;20028;-54
2021/12/08 00:18:22;;;;;;;17.15;10.82;;;;;;;4.58;100.00;98829.84;5088904;28;20043;-53
2021/12/08 00:20:48;;;;;;;13.88;11.18;;;;;;;4.85;100.00;98866.97;5097965;28;20050;-53
2021/12/08 00:23:15;;;;;;;20.80;11.82;;;;;;;4.93;100.00;98870.94;5092340;28;20468;-53
2021/12/08 00:25:40;;;;;;;13.95;9.65;;;;;;;4.99;100.00;98870.69;5101127;28;20088;-53
2021/12/08 00:28:07;;;;;;;17.58;9.75;;;;;;;4.64;100.00;98790.50;5085438;28;20028;-54
2021/12/08 00:30:33;;;;;;;16.67;10.68;;;;;;;4.99;100.00;98855.06;5089728;28;20035;-53
2021/12/08 00:32:59;;;;;;;14.40;10.35;;;;;;;5.00;100.00;98863.72;5079155;28;20032;-52
2021/12/08 00:35:26;;;;;;;15.02;9.77;;;;;;;4.85;100.00;98836.53;5091165;28;20095;-54
2021/12/08 00:37:52;;;;;;;12.88;9.98;;;;;;;4.67;100.00;98807.78;5102455;28;20131;-53
2021/12/08 00:40:18;;;;;;;12.75;10.15;;;;;;;4.98;100.00;98856.00;5101838;28;20111;-52
2021/12/08 00:42:45;;;;;;;16.38;10.38;;;;;;;5.09;100.00;98879.00;5091618;28;20122;-54
2021/12/08 00:45:12;;;;;;;13.10;9.70;;;;;;;4.69;100.00;98804.19;5097121;28;20058;-53
2021/12/08 00:47:38;;;;;;;15.73;9.95;;;;;;;5.13;100.00;98872.75;5107181;28;20035;-54
2021/12/08 00:50:05;;;;;;;15.85;9.45;;;;;;;5.20;100.00;98866.34;5085574;28;20106;-52
2021/12/08 00:52:31;;;;;;;11.35;9.60;;;;;;;5.22;100.00;98874.13;5099614;28;20049;-54
2021/12/08 00:54:58;;;;;;;14.13;9.82;;;;;;;5.14;100.00;98858.78;5110293;28;20471;-55
2021/12/08 00:57:23;;;;;;;14.63;9.00;;;;;;;5.27;100.00;98886.06;5097997;28;20032;-52
2021/12/08 00:59:48;;;;;;;17.52;8.95;;;;;;;5.28;100.00;98892.16;5105567;28;20051;-51
2021/12/08 01:02:14;;;;;;;14.73;8.18;;;;;;;5.25;100.00;98889.66;5087056;28;20075;-53
2021/12/08 01:04:39;;;;;;;14.23;8.88;;;;;;;4.95;100.00;98821.38;5098120;28;20028;-48
2021/12/08 01:07:05;;;;;;;16.17;8.55;;;;;;;5.25;100.00;98879.22;5091903;28;20028;-51
2021/12/08 01:09:31;;;;;;;15.40;8.25;;;;;;;5.39;100.00;98902.97;5099014;28;20027;-49
2021/12/08 01:12:01;;;;;;;18.40;8.40;;;;;;;5.41;100.00;98902.00;5086132;28;20032;-52
2021/12/08 01:14:27;;;;;;;12.07;7.70;;;;;;;5.07;100.00;98858.22;5106843;28;20088;-53
2021/12/08 01:16:53;;;;;;;18.95;8.52;;;;;;;5.06;100.00;98847.84;5096440;28;20077;-50
2021/12/08 01:19:18;;;;;;;16.52;7.57;;;;;;;5.39;100.00;98922.09;5091035;28;20403;-56
2021/12/08 01:21:44;;;;;;;13.25;7.13;;;;;;;5.43;100.00;98928.84;5082532;28;20431;-53
2021/12/08 01:24:10;;;;;;;14.52;7.38;;;;;;;5.00;100.00;98863.72;5102521;28;20033;-51
2021/12/08 01:26:35;;;;;;;15.10;7.63;;;;;;;5.04;100.00;98870.53;5072820;28;20028;-51
2021/12/08 01:29:02;;;;;;;15.15;6.95;;;;;;;5.44;100.00;98941.00;5095574;28;20483;-54
2021/12/08 01:31:28;;;;;;;12.90;7.13;;;;;;;4.82;100.00;98846.22;5107773;28;20467;-52
2021/12/08 01:33:53;;;;;;;16.40;7.72;;;;;;;5.01;100.00;98865.44;5101570;28;20032;-52
2021/12/08 01:36:19;;;;;;;12.07;7.88;;;;;;;5.46;100.00;98936.56;5082409;28;20063;-51
2021/12/08 01:38:45;;;;;;;13.65;7.50;;;;;;;5.55;100.00;98944.00;5108886;28;20024;-50
2021/12/08 01:41:10;;;;;;;15.38;8.35;;;;;;;5.19;100.00;98876.88;5077712;28;20087;-53
2021/12/08 01:46:21;;;;;;;14.73;8.00;;;;;;;5.45;100.00;98926.19;5105467;28;20046;-51
2021/12/08 01:48:47;;;;;;;13.10;7.70;;;;;;;5.52;100.00;98940.66;5078038;28;20032;-52
2021/12/08 01:51:16;;;;;;;14.23;7.97;;;;;;;5.24;100.00;98887.94;5109357;28;20098;-50
2021/12/08 01:53:45;;;;;;;16.40;8.63;;;;;;;5.35;100.00;98914.44;5081490;28;20553;-56
2021/12/08 01:56:11;;;;;;;18.85;7.90;;;;;;;5.62;100.00;98965.47;5101544;28;20032;-54
2021/12/08 01:58:37;;;;;;;15.80;7.28;;;;;;;5.34;100.00;98908.38;5088709;28;20498;-52
2021/12/08 02:01:09;;;;;;;13.32;7.05;;;;;;;5.58;100.00;98958.69;5077153;28;20043;-53
2021/12/08 02:03:36;;;;;;;12.00;6.85;;;;;;;5.11;100.00;98882.38;5106010;28;20035;-51
2021/12/08 02:06:03;;;;;;;15.52;7.00;;;;;;;5.46;100.00;98954.81;5067255;28;20062;-50
2021/12/08 02:08:29;;;;;;;19.33;7.68;;;;;;;5.38;100.00;98943.00;5080481;28;20040;-51
2021/12/08 02:10:55;;;;;;;14.68;7.70;;;;;;;5.48;100.00;98976.50;5109072;28;20039;-52
2021/12/08 02:13:21;;;;;;;11.85;7.18;;;;;;;5.10;100.00;98897.22;5078482;28;20038;-50
2021/12/08 02:15:48;;;;;;;13.23;8.75;;;;;;;5.23;100.00;98915.78;5104335;28;20114;-52
2021/12/08 02:18:15;;;;;;;14.75;7.20;;;;;;;5.11;100.00;98891.06;5069140;28;20116;-57
2021/12/08 02:20:44;;;;;;;15.45;6.75;;;;;;;5.13;100.00;98898.84;5079017;28;20032;-51
2021/12/08 02:23:10;;;;;;;12.20;6.68;;;;;;;5.53;100.00;98984.13;5090620;28;20362;-51
2021/12/08 02:25:35;;;;;;;11.90;6.22;;;;;;;5.15;100.00;98911.81;5079994;28;20028;-54
2021/12/08 02:28:03;;;;;;;13.10;6.90;;;;;;;5.56;100.00;98974.41;5101914;28;20097;-53
2021/12/08 02:30:38;;;;;;;13.82;5.75;;;;;;;5.59;100.00;98986.50;5105382;28;20451;-53
2021/12/08 02:49:20;;;;;;;18.15;7.18;;;;;;;5.42;100.00;98923.72;5079128;28;20036;-50
2021/12/08 02:51:47;;;;;;;16.92;6.93;;;;;;;5.71;100.00;98966.84;5104196;28;20032;-52
2021/12/08 02:54:12;;;;;;;18.98;7.05;;;;;;;5.29;100.00;98896.44;5103412;28;20040;-51
2021/12/08 02:56:38;;;;;;;21.63;8.27;;;;;;;5.68;100.00;98973.91;5096988;28;20039;-54
2021/12/08 02:59:04;;;;;;;18.25;7.35;;;;;;;4.69;100.00;98840.69;5108314;28;20127;-52
2021/12/08 03:01:30;;;;;;;16.75;7.15;;;;;;;5.67;100.00;98980.03;5079014;28;20039;-52
2021/12/08 03:03:55;;;;;;;16.40;6.95;;;;;;;5.26;100.00;98892.19;5102861;28;20032;-56
2021/12/08 03:06:21;;;;;;;12.43;6.13;;;;;;;5.28;100.00;98920.84;5104448;28;20108;-51
2021/12/08 03:08:47;;;;;;;13.40;6.30;;;;;;;5.52;100.00;98971.97;5077565;28;20083;-54
2021/12/08 03:11:12;;;;;;;10.10;3.65;;;;;;;5.19;100.00;98949.91;5109933;28;20472;-53
2021/12/08 03:13:44;;;;;;;7.00;2.80;;;;;;;5.46;100.00;98983.53;5102271;28;20119;-55
2021/12/08 03:16:11;;;;;;;4.72;2.40;;;;;;;5.05;100.00;98917.38;5104588;28;20076;-51
2021/12/08 03:18:38;;;;;;;7.28;2.17;;;;;;;5.39;100.00;98979.47;5110591;28;20039;-54
2021/12/08 03:21:06;;;;;;;3.65;1.65;;;;;;;5.37;100.00;98976.06;5098875;28;20043;-53
2021/12/08 03:23:44;;;;;;;5.63;1.65;;;;;;;5.31;100.00;98994.56;5091431;28;20114;-51
2021/12/08 03:26:09;;;;;;;3.88;2.10;;;;;;;5.21;100.00;98988.03;5089876;28;20046;-55
2021/12/08 03:28:41;;;;;;;10.82;2.75;;;;;;;4.87;100.00;98928.56;5100669;28;20060;-55
2021/12/08 03:31:12;;;;;;;8.68;2.83;;;;;;;5.18;100.00;98984.72;5112095;28;20609;-52
2021/12/08 03:33:37;;;;;;;;;;;;;;;5.16;100.00;98989.16;5085060;28;20032;-56
2021/12/08 03:36:03;;;;;;;5.70;2.55;;;;;;;4.70;100.00;98924.94;5066775;28;20329;-50
2021/12/08 03:38:29;;;;;;;9.45;2.42;;;;;;;4.65;100.00;98921.63;5101115;28;20031;-56
2021/12/08 03:40:56;;;;;;;7.00;2.50;;;;;;;5.01;100.00;98998.41;5063461;28;20115;-53
2021/12/08 03:43:22;;;;;;;5.25;2.38;;;;;;;4.65;100.00;98940.72;5092913;28;20024;-54
2021/12/08 03:45:50;;;;;;;15.48;3.10;;;;;;;4.98;100.00;99007.22;5103091;28;20028;-53
2021/12/08 03:48:24;;;;;;;4.93;2.35;;;;;;;4.92;100.00;99011.81;5084999;28;20034;-57
2021/12/08 03:50:51;;;;;;;9.52;3.10;;;;;;;4.44;100.00;98941.53;5111486;28;20062;-56
2021/12/08 03:53:17;;;;;;;9.93;3.15;;;;;;;4.81;100.00;99025.25;5081849;28;20062;-58
2021/12/08 03:55:45;;;;;;;9.27;2.80;;;;;;;4.34;100.00;98942.81;5089426;28;20064;-57
2021/12/08 03:58:11;;;;;;;6.55;2.33;;;;;;;4.46;100.00;98971.88;5105771;28;20126;-53
2021/12/08 04:00:37;;;;;;;10.00;2.88;;;;;;;4.76;100.00;99023.75;5081705;28;20399;-53
2021/12/08 04:03:04;;;;;;;10.88;2.63;;;;;;;4.69;100.00;99024.88;5111290;28;20549;-52
2021/12/08 04:05:43;;;;;;;10.00;2.63;;;;;;;4.40;100.00;98989.47;5100160;28;20110;-56
2021/12/08 04:08:16;;;;;;;12.80;3.00;;;;;;;4.19;100.00;98965.06;5087440;28;20077;-51
2021/12/08 04:10:45;;;;;;;11.07;2.63;;;;;;;4.50;100.00;99016.88;5110145;28;20053;-52
2021/12/08 04:13:11;;;;;;;8.57;2.33;;;;;;;4.58;100.00;99030.47;5098103;28;20065;-56
2021/12/08 04:15:36;;;;;;;8.68;2.17;;;;;;;4.58;100.00;99027.03;5108237;28;20067;-54
2021/12/08 04:18:02;;;;;;;6.53;2.03;;;;;;;4.11;100.00;98938.44;5086098;28;20076;-53
2021/12/08 04:20:34;;;;;;;14.88;2.83;;;;;;;4.47;100.00;99012.63;5065993;28;20039;-53
2021/12/08 04:23:01;;;;;;;10.60;2.75;;;;;;;4.05;100.00;98949.09;5110722;28;20077;-53
2021/12/08 04:25:33;;;;;;;11.45;3.05;;;;;;;4.06;100.00;98952.53;5099218;28;20034;-51
2021/12/08 04:28:01;;;;;;;11.82;2.67;;;;;;;4.37;100.00;99016.47;5104935;28;20032;-51
2021/12/08 04:30:33;;;;;;;10.77;2.95;;;;;;;4.42;100.00;99013.69;5107574;28;20487;-54
2021/12/08 04:32:59;;;;;;;9.52;3.08;;;;;;;4.21;100.00;98993.63;5097168;28;20395;-54
2021/12/08 04:35:25;;;;;;;10.65;3.83;;;;;;;3.90;100.00;98940.06;5091279;28;20020;-59
2021/12/08 04:37:55;;;;;;;13.25;3.28;;;;;;;4.52;100.00;99054.16;5102166;28;20035;-55
2021/12/08 04:46:15;;;;;;;11.00;3.95;;;;;;;4.03;100.00;98992.53;5058549;28;20039;-55
2021/12/08 05:02:40;;;;;;;11.80;3.85;;;;;;;4.26;100.00;99042.03;5101067;28;20091;-53
2021/12/08 05:05:19;;;;;;;14.90;3.78;;;;;;;4.20;100.00;99055.31;5094864;28;20482;-55
2021/12/08 05:08:13;;;;;;;17.02;4.30;;;;;;;3.92;100.00;98992.91;5100675;28;20044;-51
2021/12/08 05:10:35;;;;;;;15.15;4.05;;;;;;;4.03;100.00;99018.56;5083296;28;20063;-53
2021/12/08 05:13:03;;;;;;;12.52;4.32;;;;;;;4.25;100.00;99062.94;5110265;28;20027;-53
2021/12/08 05:15:44;;;;;;;13.73;4.05;;;;;;;3.80;100.00;98997.69;5098777;28;20038;-56
2021/12/08 05:18:14;;;;;;;;;;;;;;;4.19;100.00;99065.75;5102578;28;20475;-54
2021/12/08 05:20:56;;;;;;;8.68;3.28;;;;;;;3.86;100.00;99013.09;5090019;28;19919;-56
2021/12/08 05:23:31;;;;;;;10.15;3.58;;;;;;;3.71;100.00;98995.38;5081595;28;20362;-57
2021/12/08 05:25:59;;;;;;;13.07;3.55;;;;;;;4.06;100.00;99054.91;5104214;28;20422;-53
2021/12/08 05:28:26;;;;;;;15.85;3.78;;;;;;;3.64;100.00;99002.56;5088271;28;20459;-53
2021/12/08 05:30:56;;;;;;;11.18;3.05;;;;;;;3.91;100.00;99047.63;5096122;28;20051;-55
2021/12/08 05:33:22;;;;;;;7.90;2.55;;;;;;;3.91;100.00;99058.06;5107922;28;20118;-52
2021/12/08 05:35:48;;;;;;;11.68;3.03;;;;;;;4.01;100.00;99084.59;5077249;28;20081;-52
2021/12/08 05:38:15;;;;;;;8.93;2.45;;;;;;;3.96;100.00;99075.22;5086328;28;20036;-53
2021/12/08 05:41:03;;;;;;;10.07;2.58;;;;;;;3.98;100.00;99093.38;5097374;28;20036;-54
2021/12/08 05:43:29;;;;;;;12.18;3.67;;;;;;;4.01;100.00;99101.09;5082970;28;20378;-53
2021/12/08 05:45:55;;;;;;;10.13;2.80;;;;;;;3.98;100.00;99107.25;5103753;28;20097;-54
2021/12/08 05:48:21;;;;;;;6.72;2.50;;;;;;;3.97;100.00;99117.69;5070347;28;20050;-55
2021/12/08 05:51:06;;;;;;;12.00;3.13;;;;;;;3.93;100.00;99129.13;5062226;28;20036;-55
2021/12/08 05:53:33;;;;;;;15.73;3.33;;;;;;;3.56;100.00;99038.38;5083864;28;20032;-57
2021/12/08 05:55:59;;;;;;;14.80;2.80;;;;;;;3.80;100.00;99088.75;5103080;28;20399;-54
2021/12/08 05:58:26;;;;;;;11.20;2.20;;;;;;;3.93;100.00;99106.56;5105416;28;20047;-54
2021/12/08 06:01:00;;;;;;;7.45;2.80;;;;;;;3.57;100.00;99052.25;5095672;28;20478;-53
2021/12/08 06:03:26;;;;;;;14.00;2.55;;;;;;;3.88;100.00;99131.03;5107235;28;20137;-56
2021/12/08 06:05:54;;;;;;;14.52;2.55;;;;;;;3.48;100.00;99052.53;5100637;28;20066;-51
2021/12/08 06:08:20;;;;;;;11.45;2.40;;;;;;;3.53;100.00;99059.31;5082054;28;20028;-54
2021/12/08 06:10:46;;;;;;;12.60;3.28;;;;;;;3.84;100.00;99114.66;5090141;28;20368;-53
2021/12/08 06:13:14;;;;;;;12.05;2.90;;;;;;;3.87;100.00;99117.16;5095511;28;20024;-53
2021/12/08 06:15:42;;;;;;;10.52;3.08;;;;;;;3.82;100.00;99136.44;5105403;28;20028;-53
2021/12/08 06:18:08;;;;;;;12.15;2.47;;;;;;;3.46;100.00;99081.22;5084748;28;20031;-53
2021/12/08 06:20:34;;;;;;;9.63;2.50;;;;;;;3.86;100.00;99169.25;5079950;28;20107;-53
2021/12/08 06:23:00;;;;;;;12.73;2.85;;;;;;;3.85;100.00;99155.38;5108815;28;20027;-49
2021/12/08 06:25:26;;;;;;;9.07;2.65;;;;;;;3.72;100.00;99156.69;5078817;28;20031;-54
2021/12/08 06:27:52;;;;;;;13.63;2.50;;;;;;;3.50;100.00;99105.38;5103493;28;20384;-55
2021/12/08 06:30:21;;;;;;;13.82;2.70;;;;;;;3.67;100.00;99137.78;5085686;28;20043;-52
2021/12/08 06:32:47;;;;;;;11.65;2.60;;;;;;;3.81;100.00;99178.97;5095679;28;20455;-53
2021/12/08 06:35:22;;;;;;;12.73;2.47;;;;;;;3.49;100.00;99117.53;5108126;28;20038;-53
2021/12/08 06:37:48;;;;;;;9.98;2.83;;;;;;;3.83;100.00;99169.34;5080795;28;20471;-53
2021/12/08 06:40:19;;;;;;;15.95;3.00;;;;;;;3.80;100.00;99172.03;5100207;28;20031;-55
2021/12/08 06:42:47;;;;;;;11.63;2.50;;;;;;;3.77;100.00;99166.94;5107564;28;20394;-53
2021/12/08 06:45:19;;;;;;;11.88;2.92;;;;;;;3.86;100.00;99183.13;5097215;28;20043;-53
2021/12/08 06:47:46;;;;;;;14.80;2.97;;;;;;;3.87;100.00;99176.16;5108520;28;20063;-51
2021/12/08 06:50:23;;;;;;;13.18;2.95;;;;;;;3.47;100.00;99095.94;5097793;28;20028;-52
2021/12/08 06:52:56;;;;;;;11.68;2.47;;;;;;;3.40;100.00;99090.06;5096100;28;20036;-57
2021/12/08 06:55:29;;;;;;;17.17;3.55;;;;;;;3.75;100.00;99155.72;5090709;28;20471;-56
2021/12/08 06:58:03;;;;;;;12.38;2.70;;;;;;;3.87;100.00;99176.16;5073929;28;20118;-50
2021/12/08 07:03:38;;;;;;;15.30;3.30;;;;;;;3.93;100.00;99189.00;5092011;28;20068;-52
2021/12/08 07:06:10;;;;;;;15.30;3.15;;;;;;;3.48;100.00;99113.22;5094827;28;20335;-55
2021/12/08 07:08:46;;;;;;;14.27;3.22;;;;;;;3.60;100.00;99128.44;5095242;28;20572;-56
2021/12/08 07:11:14;;;;;;;15.32;3.80;;;;;;;3.49;100.00;99120.13;5093992;28;20085;-57
2021/12/08 07:13:40;;;;;;;10.48;2.45;;;;;;;3.91;100.00;99191.63;5095644;28;20028;-56
2021/12/08 07:16:13;;;;;;;16.83;2.88;;;;;;;3.35;100.00;99110.16;5095916;28;20032;-55
2021/12/08 07:18:52;;;;;;;15.30;2.95;;;;;;;3.80;100.00;99187.66;5095787;28;20114;-59
2021/12/08 07:21:18;;;;;;;13.18;2.92;;;;;;;3.82;100.00;99194.50;5094264;28;20023;-54
2021/12/08 07:23:51;;;;;;;10.13;3.22;;;;;;;3.66;100.00;99179.44;5095280;28;20465;-55
2021/12/08 07:26:19;;;;;;;13.38;3.00;;;;;;;3.77;100.00;99206.81;5095410;28;20459;-53
2021/12/08 07:28:46;;;;;;;13.43;3.47;;;;;;;3.49;100.00;99137.47;5093853;28;20425;-53
2021/12/08 07:31:20;;;;;;;8.98;2.63;;;;;;;3.74;100.00;99169.63;5094012;28;20052;-57
2021/12/08 07:33:45;;;;;;;16.30;3.20;;;;;;;3.55;100.00;99138.16;5095062;28;20028;-55
2021/12/08 07:36:15;;;;;;;11.50;3.00;;;;;;;3.96;100.00;99213.19;5077142;28;20038;-52
2021/12/08 07:38:41;;;;;;;13.60;3.40;;;;;;;3.54;100.00;99159.00;5094012;28;20140;-56
2021/12/08 07:41:12;;;;;;;9.82;3.17;;;;;;;3.85;100.00;99222.22;5095370;28;20036;-57
2021/12/08 07:43:44;;;;;;;9.98;3.15;;;;;;;3.84;100.00;99215.31;5095289;28;20031;-53
2021/12/08 07:46:13;;;;;;;10.65;3.17;;;;;;;3.89;100.00;99229.03;5094201;28;20059;-54
2021/12/08 07:48:46;;;;;;;13.32;3.97;;;;;;;3.49;100.00;99150.50;5094713;28;20129;-51
2021/12/08 07:51:19;;;;;;;11.80;3.33;;;;;;;3.90;100.00;99229.00;5095097;28;20043;-55
2021/12/08 07:53:45;;;;;;;13.43;3.97;;;;;;;3.89;100.00;99218.59;5094977;28;20064;-52
2021/12/08 07:56:12;;;;;;;14.55;3.88;;;;;;;3.46;100.00;99151.44;5076440;28;20036;-55
2021/12/08 07:58:40;;;;;;;11.98;3.38;;;;;;;3.76;100.00;99204.28;5093335;28;20044;-54
2021/12/08 08:01:12;;;;;;;11.65;2.80;;;;;;;3.29;100.00;99130.28;5093545;28;20035;-57
2021/12/08 08:03:42;;;;;;;16.58;2.95;;;;;;;3.30;100.00;99132.84;5094539;28;20038;-50
2021/12/08 08:06:14;;;;;;;11.40;3.45;;;;;;;3.73;100.00;99222.59;5093309;28;20024;-58
2021/12/08 08:08:39;;;;;;;15.38;3.15;;;;;;;3.34;100.00;99149.19;5094529;28;20448;-51
2021/12/08 08:11:10;;;;;;;16.35;3.30;;;;;;;3.83;100.00;99224.88;5094390;28;20115;-54
2021/12/08 08:13:36;;;;;;;7.33;2.70;;;;;;;3.45;100.00;99156.66;5094502;28;20036;-59
2021/12/08 08:16:07;;;;;;;10.50;3.63;;;;;;;3.86;100.00;99216.09;5095107;28;20323;-56
2021/12/08 08:18:37;;;;;;;13.32;3.65;;;;;;;3.88;100.00;99224.75;5093307;28;20067;-55
2021/12/08 08:21:08;;;;;;;14.32;4.13;;;;;;;3.57;100.00;99167.56;5093454;28;20051;-52
2021/12/08 08:23:34;;;;;;;11.98;3.50;;;;;;;3.70;100.00;99181.06;5094452;28;20039;-51
2021/12/08 08:26:01;;;;;;;11.05;3.25;;;;;;;4.09;100.00;99207.56;5092950;28;20039;-57
2021/12/08 08:28:26;;;;;;;10.90;3.63;;;;;;;3.94;100.00;99164.69;5094117;28;20484;-55
2021/12/08 08:31:14;;;;;;;11.05;3.30;;;;;;;4.00;100.00;99163.63;5094408;28;20052;-58
2021/12/08 08:33:41;;;;;;;13.15;3.53;;;;;;;4.51;100.00;99245.25;5094257;28;20027;-58
2021/12/08 08:36:13;;;;;;;10.05;2.80;;;;;;;4.55;100.00;99245.09;5094166;28;20038;-57
2021/12/08 08:38:47;;;;;;;10.38;3.35;;;;;;;4.63;100.00;99242.25;5094134;28;20024;-51
2021/12/08 08:41:16;;;;;;;11.68;3.20;;;;;;;4.27;100.00;99178.31;5094008;28;20435;-56
2021/12/08 08:43:44;;;;;;;7.85;2.70;;;;;;;4.75;100.00;99236.63;5094006;28;20028;-57
2021/12/08 08:46:15;;;;;;;11.15;3.10;;;;;;;4.63;100.00;99207.50;5094006;28;20538;-55
2021/12/08 08:48:47;;;;;;;11.95;2.97;;;;;;;4.47;100.00;99168.94;5094013;28;20166;-58
2021/12/08 08:51:21;;;;;;;9.10;2.50;;;;;;;4.81;100.00;99212.94;5094056;28;20031;-54
2021/12/08 08:53:49;;;;;;;10.27;3.10;;;;;;;5.00;100.00;99237.47;5093967;28;20532;-58
2021/12/08 08:56:28;;;;;;;10.68;2.60;;;;;;;5.10;100.00;99257.09;5093535;28;20032;-56
2021/12/08 08:58:56;;;;;;;11.88;3.35;;;;;;;4.83;100.00;99197.25;5093710;28;20067;-57
2021/12/08 09:01:27;;;;;;;12.35;3.40;;;;;;;4.78;100.00;99194.81;5093512;28;20031;-54
2021/12/08 09:04:07;;;;;;;12.93;3.63;;;;;;;4.87;100.00;99206.66;5093289;28;20107;-56
2021/12/08 09:06:36;;;;;;;11.52;2.75;;;;;;;5.25;100.00;99262.69;5093529;28;20040;-55
2021/12/08 09:09:08;;;;;;;10.20;3.17;;;;;;;4.83;100.00;99198.09;5092569;28;20360;-55
2021/12/08 09:11:42;;;;;;;11.68;3.20;;;;;;;5.26;100.00;99267.81;5092570;28;20108;-54
2021/12/08 09:14:36;;;;;;;9.73;2.83;;;;;;;5.29;100.00;99287.72;5091102;28;20114;-57
2021/12/08 09:17:13;;;;;;;9.93;3.05;;;;;;;5.37;100.00;99273.50;5089204;28;20533;-59
2021/12/08 09:20:03;;;;;;;11.57;2.90;;;;;;;4.95;100.00;99208.09;5092367;28;20133;-59
2021/12/08 09:22:34;;;;;;;8.63;2.95;;;;;;;5.35;100.00;99280.53;5092009;28;20067;-54
2021/12/08 09:25:12;;;;;;;11.90;2.70;;;;;;;5.41;100.00;99271.63;5091240;28;20028;-53
2021/12/08 09:27:45;;;;;;;10.73;3.00;;;;;;;5.08;100.00;99208.47;5091975;28;20595;-54
2021/12/08 09:30:21;;;;;;;7.00;2.45;;;;;;;5.19;100.00;99235.06;5091896;28;20060;-57
2021/12/08 09:32:51;;;;;;;8.93;2.97;;;;;;;5.47;100.00;99292.28;5092216;28;20490;-56
2021/12/08 09:35:41;;;;;;;11.33;3.37;;;;;;;5.43;100.00;99296.78;5090677;28;20031;-52
2021/12/08 09:38:31;;;;;;;7.10;2.42;;;;;;;5.46;100.00;99314.94;5091856;28;20433;-52
2021/12/08 09:41:14;;;;;;;9.63;3.17;;;;;;;5.15;100.00;99256.06;5091926;28;20383;-54
2021/12/08 09:43:44;;;;;;;7.53;2.75;;;;;;;5.47;100.00;99323.63;5090409;28;20042;-57
2021/12/08 09:46:21;;;;;;;8.50;2.47;;;;;;;5.42;100.00;99325.53;5092084;28;20107;-58
2021/12/08 09:48:47;;;;;;;10.38;2.90;;;;;;;5.16;100.00;99284.72;5091647;28;20494;-56
2021/12/08 09:51:15;;;;;;;6.47;2.47;;;;;;;4.88;100.00;99252.66;5090467;28;20028;-53
2021/12/08 09:53:43;;;;;;;9.90;2.92;;;;;;;4.91;100.00;99257.78;5090434;28;20125;-58
2021/12/08 09:56:09;;;;;;;6.90;2.75;;;;;;;5.17;100.00;99320.31;5090344;28;20115;-53
2021/12/08 09:58:36;;;;;;;8.00;2.70;;;;;;;4.88;100.00;99281.34;5091580;28;20064;-58
2021/12/08 10:01:04;;;;;;;8.65;2.85;;;;;;;5.24;100.00;99354.88;5091949;28;20116;-54
2021/12/08 10:03:29;;;;;;;8.80;2.95;;;;;;;5.24;100.00;99347.91;5091727;28;20551;-59
2021/12/08 10:05:55;;;;;;;7.55;3.25;;;;;;;5.02;100.00;99313.03;5091197;28;20216;-57
2021/12/08 10:08:21;;;;;;;8.43;2.47;;;;;;;5.23;100.00;99351.41;5073392;28;20048;-53
2021/12/08 10:10:47;;;;;;;8.38;3.28;;;;;;;5.19;100.00;99352.44;5091269;28;20071;-59
2021/12/08 10:13:14;;;;;;;9.68;3.33;;;;;;;5.22;100.00;99352.34;5091987;28;20028;-61
2021/12/08 10:15:40;;;;;;;7.65;3.58;;;;;;;5.16;100.00;99342.09;5090957;28;20034;-54
2021/12/08 10:18:06;;;;;;;10.80;4.40;;;;;;;5.31;100.00;99351.16;5090443;28;20115;-59
2021/12/08 10:20:38;;;;;;;9.40;4.25;;;;;;;4.85;100.00;99276.22;5091137;28;20039;-59
2021/12/08 10:23:20;;;;;;;9.75;4.18;;;;;;;5.35;100.00;99365.78;5091340;28;20032;-56
2021/12/08 10:25:53;;;;;;;10.65;4.13;;;;;;;5.42;100.00;99349.88;5091721;28;20054;-56
2021/12/08 10:28:29;;;;;;;7.20;4.30;;;;;;;5.56;100.00;99344.16;5091296;28;20071;-54
2021/12/08 10:31:08;;;;;;;9.82;4.57;;;;;;;5.63;100.00;99343.06;5091138;28;20143;-56
2021/12/08 10:34:00;;;;;;;6.63;3.95;;;;;;;5.78;100.00;99339.03;5091085;28;20509;-59
2021/12/08 10:36:45;;;;;;;8.05;4.28;;;;;;;5.44;100.00;99287.19;5091191;28;20024;-56
2021/12/08 10:39:16;;;;;;;9.88;3.65;;;;;;;5.58;100.00;99288.38;5090985;28;20479;-53
2021/12/08 10:41:46;;;;;;;;;;;;;;;5.94;100.00;99351.50;5090942;28;20028;-57
2021/12/08 10:44:11;;;;;;;8.50;3.55;;;;;;;5.88;100.00;99346.50;5091147;28;20060;-57
2021/12/08 10:46:38;;;;;;;8.57;3.42;;;;;;;5.93;100.00;99356.75;5089896;28;20123;-60
2021/12/08 10:49:18;;;;;;;7.20;3.78;;;;;;;5.80;100.00;99321.53;5090924;28;20031;-58
2021/12/08 10:54:30;;;;;;;7.78;3.55;;;;;;;6.11;100.00;99369.13;5090995;28;20055;-54
2021/12/08 10:56:58;;;;;;;7.65;3.25;;;;;;;6.07;100.00;99357.13;5091155;28;20040;-55
2021/12/08 10:59:27;;;;;;;5.80;3.53;;;;;;;5.96;100.00;99339.22;5090942;28;20029;-57
2021/12/08 11:01:54;;;;;;;11.63;3.80;;;;;;;6.04;100.00;99360.66;5090810;28;20036;-57
2021/12/08 11:04:28;;;;;;;10.82;3.80;;;;;;;5.50;100.00;99264.34;5090686;28;20119;-55
2021/12/08 11:07:03;;;;;;;9.75;3.80;;;;;;;5.92;100.00;99337.66;5090866;28;20035;-52
2021/12/08 11:09:38;;;;;;;9.00;3.75;;;;;;;5.89;100.00;99347.34;5091067;28;20028;-57
2021/12/08 11:12:04;;;;;;;7.78;3.88;;;;;;;5.41;100.00;99282.94;5091083;28;20386;-51
2021/12/08 11:14:42;;;;;;;6.75;3.60;;;;;;;5.73;100.00;99346.16;5089621;28;20032;-54
2021/12/08 11:17:24;;;;;;;8.20;4.00;;;;;;;5.66;100.00;99327.28;5090718;28;20459;-52
2021/12/08 11:19:49;;;;;;;6.38;3.45;;;;;;;5.28;100.00;99266.03;5091099;28;20169;-57
2021/12/08 11:22:16;;;;;;;10.70;3.88;;;;;;;5.86;100.00;99348.31;5090960;28;20115;-51
2021/12/08 11:24:56;;;;;;;7.60;3.25;;;;;;;5.48;100.00;99273.13;5089527;28;20028;-56
2021/12/08 11:27:30;;;;;;;11.50;4.15;;;;;;;5.87;100.00;99321.28;5090578;28;20032;-56
2021/12/08 11:29:55;;;;;;;10.50;4.35;;;;;;;6.22;100.00;99364.34;5089820;28;20396;-54
2021/12/08 11:32:24;;;;;;;7.82;3.90;;;;;;;6.16;100.00;99352.38;5092224;28;20055;-56
2021/12/08 11:34:51;;;;;;;12.13;3.50;;;;;;;5.91;100.00;99312.44;5094632;28;20043;-58
2021/12/08 11:37:22;;;;;;;8.13;4.07;;;;;;;6.22;100.00;99372.19;5094364;28;20771;-55
2021/12/08 11:39:55;;;;;;;10.13;3.70;;;;;;;6.17;100.00;99377.59;5093082;28;20497;-56
2021/12/08 11:42:23;;;;;;;8.88;4.03;;;;;;;6.16;100.00;99385.47;5094112;28;20057;-53
2021/12/08 11:44:53;;;;;;;8.55;3.70;;;;;;;5.75;100.00;99310.44;5093153;28;20043;-56
2021/12/08 11:47:23;;;;;;;9.95;4.07;;;;;;;6.07;100.00;99384.06;5094381;28;20028;-56
2021/12/08 11:49:54;;;;;;;7.38;3.67;;;;;;;5.95;100.00;99370.63;5094494;28;20075;-54
2021/12/08 11:52:23;;;;;;;9.27;4.40;;;;;;;5.96;100.00;99386.22;5094106;28;20035;-56
2021/12/08 11:54:56;;;;;;;10.02;4.38;;;;;;;5.90;100.00;99380.38;5093017;28;20036;-57
2021/12/08 11:57:24;;;;;;;9.05;4.18;;;;;;;5.66;100.00;99342.94;5094199;28;20113;-57
2021/12/08 12:00:10;;;;;;;6.93;4.18;;;;;;;5.64;100.00;99340.38;5093858;28;20032;-61
2021/12/08 12:02:43;;;;;;;8.48;4.32;;;;;;;5.73;100.00;99367.91;5093838;28;20423;-54
2021/12/08 12:05:13;;;;;;;11.55;4.50;;;;;;;5.65;100.00;99356.88;5093832;28;20168;-54
2021/12/08 12:07:39;;;;;;;8.93;4.95;;;;;;;5.63;100.00;99349.09;5093980;28;20476;-57
2021/12/08 12:10:07;;;;;;;8.88;3.85;;;;;;;5.24;100.00;99277.47;5093948;28;20032;-54
2021/12/08 12:12:32;;;;;;;10.50;5.15;;;;;;;5.47;100.00;99321.00;5093877;28;20044;-56
2021/12/08 12:14:57;;;;;;;8.93;3.70;;;;;;;5.72;100.00;99375.81;5092585;28;20119;-55
2021/12/08 12:17:23;;;;;;;11.10;4.13;;;;;;;5.71;100.00;99353.19;5093637;28;20036;-56
2021/12/08 12:19:52;;;;;;;9.70;3.95;;;;;;;5.64;100.00;99350.81;5093583;28;20036;-50
2021/12/08 12:22:19;;;;;;;8.63;3.90;;;;;;;5.78;100.00;99391.25;5093588;28;20112;-54
2021/12/08 12:25:09;;;;;;;10.55;4.03;;;;;;;5.79;100.00;99383.34;5093468;28;20381;-60
2021/12/08 12:28:07;;;;;;;10.02;5.05;;;;;;;5.78;100.00;99383.41;5093445;28;20043;-57